Time;durP1;ratioP1;P1;durP2;ratioP2;P2;SDS_P1;SDS_P2;PMS_P1;PMS_P2;Temp;Humidity;BMP_temperature;BMP_pressure;BME280_temperature;BME280_humidity;BME280_pressure;Samples;Min_cycle;Max_cycle;Signal;HPM_P1;HPM_P2
2023/06/22 00:02:25;;;;;;;;;;;18.00;99.90;;;;;;5100921;28;19912;-59
2023/06/22 00:04:51;;;;;;;;;;;18.00;99.90;;;;;;5085388;28;19962;-59
2023/06/22 00:07:16;;;;;;;;;;;18.00;99.90;;;;;;5094340;28;19934;-58
2023/06/22 00:09:42;;;;;;;;;;;17.90;99.90;;;;;;5086035;28;20002;-58
2023/06/22 00:12:08;;;;;;;;;;;17.90;99.90;;;;;;5091275;28;19944;-59
2023/06/22 00:14:33;;;;;;;;;;;17.90;99.90;;;;;;5080287;28;19908;-58
2023/06/22 00:16:59;;;;;;;;;;;17.90;99.90;;;;;;5089341;28;19908;-58
2023/06/22 00:19:24;;;;;;;;;;;17.80;99.90;;;;;;5087308;28;19927;-58
2023/06/22 00:21:53;;;;;;;;;;;17.80;99.90;;;;;;5080068;28;19920;-58
2023/06/22 00:24:22;;;;;;;;;;;17.80;99.90;;;;;;5080035;28;19919;-58
2023/06/22 00:26:48;;;;;;;;;;;17.80;99.90;;;;;;5079949;28;20040;-58
2023/06/22 00:29:14;;;;;;;;;;;17.70;99.90;;;;;;5080182;28;19909;-58
2023/06/22 00:31:39;;;;;;;;;;;17.70;99.90;;;;;;5079882;28;19915;-59
2023/06/22 00:34:06;;;;;;;;;;;17.70;99.90;;;;;;5080073;28;19955;-58
2023/06/22 00:36:32;;;;;;;;;;;17.70;99.90;;;;;;5079749;28;20456;-58
2023/06/22 00:38:57;;;;;;;;;;;17.70;99.90;;;;;;5080127;28;19916;-58
2023/06/22 00:41:23;;;;;;;;;;;17.60;99.90;;;;;;5079396;28;19920;-59
2023/06/22 00:43:48;;;;;;;;;;;17.60;99.90;;;;;;5083002;28;19913;-58
2023/06/22 00:46:14;;;;;;;;;;;17.60;99.90;;;;;;5088368;28;19916;-58
2023/06/22 00:48:41;;;;;;;;;;;17.60;99.90;;;;;;5079952;28;20326;-58
2023/06/22 00:51:07;;;;;;;;;;;17.60;99.90;;;;;;5097637;28;19962;-58
2023/06/22 00:53:34;;;;;;;;;;;17.50;99.90;;;;;;5087372;28;19917;-58
2023/06/22 00:56:00;;;;;;;;;;;17.50;99.90;;;;;;5079582;28;20003;-58
2023/06/22 00:58:26;;;;;;;;;;;17.50;99.90;;;;;;5079514;28;19947;-58
2023/06/22 01:00:52;;;;;;;;;;;17.40;99.90;;;;;;5089401;28;19912;-58
2023/06/22 01:03:18;;;;;;;;;;;17.40;99.90;;;;;;5097509;28;19913;-58
2023/06/22 01:05:46;;;;;;;;;;;17.40;99.90;;;;;;5099061;28;20455;-58
2023/06/22 01:08:27;;;;;;;;;;;17.40;99.90;;;;;;5099223;28;19944;-59
2023/06/22 01:11:04;;;;;;;;;;;17.30;99.90;;;;;;5086581;28;19924;-59
2023/06/22 01:13:37;;;;;;;;;;;17.30;99.90;;;;;;5078915;28;19947;-59
2023/06/22 01:16:21;;;;;;;;;;;17.30;99.90;;;;;;5084288;28;19912;-59
2023/06/22 01:18:49;;;;;;;;;;;17.30;99.90;;;;;;5098624;28;19967;-59
2023/06/22 01:21:17;;;;;;;;;;;17.30;99.90;;;;;;5099160;28;19930;-59
2023/06/22 01:23:58;;;;;;;;;;;17.30;99.90;;;;;;5099216;28;19908;-59
2023/06/22 01:26:31;;;;;;;;;;;17.20;99.90;;;;;;5095273;28;19919;-59
2023/06/22 01:28:58;;;;;;;;;;;17.20;99.90;;;;;;5086350;28;19920;-59
2023/06/22 01:31:25;;;;;;;;;;;17.20;99.90;;;;;;5098890;28;19930;-59
2023/06/22 01:33:53;;;;;;;;;;;17.20;99.90;;;;;;5092573;28;19935;-59
2023/06/22 01:36:19;;;;;;;;;;;17.10;99.90;;;;;;5079000;28;19916;-59
2023/06/22 01:38:46;;;;;;;;;;;17.10;99.90;;;;;;5078583;28;19962;-59
2023/06/22 01:41:12;;;;;;;;;;;17.10;99.90;;;;;;5082095;28;19995;-59
2023/06/22 01:43:38;;;;;;;;;;;17.00;99.90;;;;;;5098771;28;19916;-59
2023/06/22 01:46:04;;;;;;;;;;;17.00;99.90;;;;;;5098593;28;20014;-59
2023/06/22 01:48:30;;;;;;;;;;;17.00;99.90;;;;;;5085687;28;19993;-59
2023/06/22 01:50:55;;;;;;;;;;;17.00;99.90;;;;;;5093924;28;19919;-59
2023/06/22 01:53:22;;;;;;;;;;;17.00;99.90;;;;;;5078536;28;19913;-59
2023/06/22 01:55:47;;;;;;;;;;;17.00;99.90;;;;;;5084824;28;19915;-59
2023/06/22 01:58:13;;;;;;;;;;;16.90;99.90;;;;;;5090491;28;20295;-59
2023/06/22 02:00:40;;;;;;;;;;;16.90;99.90;;;;;;5090305;28;19912;-59
2023/06/22 02:03:10;;;;;;;;;;;16.90;99.90;;;;;;5078610;28;19908;-58
2023/06/22 02:05:43;;;;;;;;;;;16.90;99.90;;;;;;5087707;28;19947;-59
2023/06/22 02:08:09;;;;;;;;;;;16.90;99.90;;;;;;5098376;28;19912;-59
2023/06/22 02:10:36;;;;;;;;;;;16.80;99.90;;;;;;5098137;28;19915;-59
2023/06/22 02:13:04;;;;;;;;;;;16.80;99.90;;;;;;5098520;28;19931;-59
2023/06/22 02:15:30;;;;;;;;;;;16.80;99.90;;;;;;5085743;28;19920;-59
2023/06/22 02:17:55;;;;;;;;;;;16.80;99.90;;;;;;5077949;28;20367;-59
2023/06/22 02:20:23;;;;;;;;;;;16.80;99.90;;;;;;5086672;28;20003;-59
2023/06/22 02:22:49;;;;;;;;;;;16.80;99.90;;;;;;5086768;28;19915;-59
2023/06/22 02:25:14;;;;;;;;;;;16.80;99.90;;;;;;5098232;28;19912;-59
2023/06/22 02:27:40;;;;;;;;;;;16.70;99.90;;;;;;5083183;28;19947;-58
2023/06/22 02:30:11;;;;;;;;;;;16.70;99.90;;;;;;5077625;28;19908;-59
2023/06/22 02:32:37;;;;;;;;;;;16.80;99.90;;;;;;5077288;28;19912;-59
2023/06/22 02:35:06;;;;;;;;;;;16.70;99.90;;;;;;5078302;28;19909;-59
2023/06/22 02:37:32;;;;;;;;;;;16.70;99.90;;;;;;5078021;28;19909;-59
2023/06/22 02:39:58;;;;;;;;;;;16.70;99.90;;;;;;5077738;28;20008;-59
2023/06/22 02:42:23;;;;;;;;;;;16.70;99.90;;;;;;5077773;28;19916;-59
2023/06/22 02:44:49;;;;;;;;;;;16.70;99.90;;;;;;5077898;28;19916;-59
2023/06/22 02:47:15;;;;;;;;;;;16.70;99.90;;;;;;5077922;28;20007;-59
2023/06/22 02:49:41;;;;;;;;;;;16.70;99.90;;;;;;5077688;28;19916;-58
2023/06/22 02:52:07;;;;;;;;;;;16.70;99.90;;;;;;5087980;28;19912;-59
2023/06/22 02:54:33;;;;;;;;;;;16.60;99.90;;;;;;5077696;28;19916;-59
2023/06/22 02:57:02;;;;;;;;;;;16.60;99.90;;;;;;5083843;28;19908;-59
2023/06/22 02:59:28;;;;;;;;;;;16.60;99.90;;;;;;5098672;28;19909;-59
2023/06/22 03:01:54;;;;;;;;;;;16.60;99.90;;;;;;5097766;28;19916;-59
2023/06/22 03:04:19;;;;;;;;;;;16.60;99.90;;;;;;5097904;28;19991;-59
2023/06/22 03:06:50;;;;;;;;;;;16.60;99.90;;;;;;5082990;28;19913;-59
2023/06/22 03:09:17;;;;;;;;;;;16.60;99.90;;;;;;5089063;28;19959;-59
2023/06/22 03:11:42;;;;;;;;;;;16.60;99.90;;;;;;5077738;28;19962;-59
2023/06/22 03:14:08;;;;;;;;;;;16.60;99.90;;;;;;5083798;28;19908;-59
2023/06/22 03:16:34;;;;;;;;;;;16.60;99.90;;;;;;5087150;28;19947;-59
2023/06/22 03:18:59;;;;;;;;;;;16.60;99.90;;;;;;5085514;28;20426;-59
2023/06/22 03:21:27;;;;;;;;;;;16.60;99.90;;;;;;5078195;28;19955;-59
2023/06/22 03:23:52;;;;;;;;;;;16.60;99.90;;;;;;5077014;28;19912;-59
2023/06/22 03:26:18;;;;;;;;;;;16.60;99.90;;;;;;5077822;28;20394;-59
2023/06/22 03:28:44;;;;;;;;;;;16.60;99.90;;;;;;5077273;28;20276;-59
2023/06/22 03:31:10;;;;;;;;;;;16.50;99.90;;;;;;5077462;28;20007;-59
2023/06/22 03:33:35;;;;;;;;;;;16.50;99.90;;;;;;5083821;28;20465;-59
2023/06/22 03:36:01;;;;;;;;;;;16.50;99.90;;;;;;5094916;28;20003;-59
2023/06/22 03:38:27;;;;;;;;;;;16.50;99.90;;;;;;5093740;28;19948;-59
2023/06/22 03:40:52;;;;;;;;;;;16.50;99.90;;;;;;5076558;28;19921;-59
2023/06/22 03:43:18;;;;;;;;;;;16.40;99.90;;;;;;5081222;28;19956;-59
2023/06/22 03:45:45;;;;;;;;;;;16.50;99.90;;;;;;5091209;28;20283;-59
2023/06/22 03:48:11;;;;;;;;;;;16.40;99.90;;;;;;5093072;28;19913;-59
2023/06/22 03:50:37;;;;;;;;;;;16.40;99.90;;;;;;5080849;28;20011;-59
2023/06/22 03:53:02;;;;;;;;;;;16.40;99.90;;;;;;5090560;28;19940;-59
2023/06/22 03:55:28;;;;;;;;;;;16.40;99.90;;;;;;5095986;28;19923;-59
2023/06/22 03:57:56;;;;;;;;;;;16.40;99.90;;;;;;5092323;28;20446;-59
2023/06/22 04:00:25;;;;;;;;;;;16.40;99.90;;;;;;5080677;28;19915;-59
2023/06/22 04:02:50;;;;;;;;;;;16.40;99.90;;;;;;5080418;28;19916;-59
2023/06/22 04:05:18;;;;;;;;;;;16.30;99.90;;;;;;5080698;28;20291;-59
2023/06/22 04:07:44;;;;;;;;;;;16.40;99.90;;;;;;5087135;28;19912;-59
2023/06/22 04:10:10;;;;;;;;;;;16.30;99.90;;;;;;5100286;28;19915;-59
2023/06/22 04:12:35;;;;;;;;;;;16.30;99.90;;;;;;5099029;28;19908;-59
2023/06/22 04:15:01;;;;;;;;;;;16.30;99.90;;;;;;5084466;28;19928;-59
2023/06/22 04:17:27;;;;;;;;;;;16.20;99.90;;;;;;5080126;28;20415;-58
2023/06/22 04:19:52;;;;;;;;;;;16.20;99.90;;;;;;5080212;28;20012;-59
2023/06/22 04:22:18;;;;;;;;;;;16.20;99.90;;;;;;5081142;28;19909;-59
2023/06/22 04:24:44;;;;;;;;;;;16.20;99.90;;;;;;5091094;28;19985;-59
2023/06/22 04:27:10;;;;;;;;;;;16.20;99.90;;;;;;5078724;28;19908;-59
2023/06/22 04:29:36;;;;;;;;;;;16.20;99.90;;;;;;5091609;28;19958;-59
2023/06/22 04:32:05;;;;;;;;;;;16.20;99.90;;;;;;5083548;28;20030;-59
2023/06/22 04:34:30;;;;;;;;;;;16.20;99.90;;;;;;5079814;28;19976;-59
2023/06/22 04:36:56;;;;;;;;;;;16.10;99.90;;;;;;5079959;28;20391;-58
2023/06/22 04:39:22;;;;;;;;;;;16.10;99.90;;;;;;5079762;28;20030;-59
2023/06/22 04:41:47;;;;;;;;;;;16.10;99.90;;;;;;5079571;28;20407;-59
2023/06/22 04:44:23;;;;;;;;;;;16.20;99.90;;;;;;5080079;28;19913;-59
2023/06/22 04:47:08;;;;;;;;;;;16.20;99.90;;;;;;5079377;28;20272;-59
2023/06/22 04:49:37;;;;;;;;;;;16.10;99.90;;;;;;5079746;28;19913;-59
2023/06/22 04:52:04;;;;;;;;;;;16.10;99.90;;;;;;5078549;28;19952;-59
2023/06/22 04:54:32;;;;;;;;;;;16.20;99.90;;;;;;5078545;28;19987;-59
2023/06/22 04:57:01;;;;;;;;;;;16.10;99.90;;;;;;5084111;28;19951;-59
2023/06/22 04:59:28;;;;;;;;;;;16.20;99.90;;;;;;5098223;28;19936;-59
2023/06/22 05:01:54;;;;;;;;;;;16.10;99.90;;;;;;5094287;28;19908;-59
2023/06/22 05:04:21;;;;;;;;;;;16.20;99.90;;;;;;5079033;28;19970;-59
2023/06/22 05:06:46;;;;;;;;;;;16.20;99.90;;;;;;5079242;28;19912;-59
2023/06/22 05:09:12;;;;;;;;;;;16.20;99.90;;;;;;5079394;28;19919;-59
2023/06/22 05:11:38;;;;;;;;;;;16.10;99.90;;;;;;5078906;28;19909;-59
2023/06/22 05:14:03;;;;;;;;;;;16.10;99.90;;;;;;5087722;28;19912;-59
2023/06/22 05:16:29;;;;;;;;;;;16.10;99.90;;;;;;5082491;28;19908;-58
2023/06/22 05:18:55;;;;;;;;;;;16.10;99.90;;;;;;5082001;28;19908;-59
2023/06/22 05:21:24;;;;;;;;;;;16.10;99.90;;;;;;5079384;28;19912;-59
2023/06/22 05:23:50;;;;;;;;;;;16.10;99.90;;;;;;5081413;28;19920;-59
2023/06/22 05:26:16;;;;;;;;;;;16.10;99.90;;;;;;5079083;28;19909;-59
2023/06/22 05:28:41;;;;;;;;;;;16.10;99.90;;;;;;5090431;28;19923;-58
2023/06/22 05:31:07;;;;;;;;;;;16.10;99.90;;;;;;5079461;28;19909;-59
2023/06/22 05:33:33;;;;;;;;;;;16.10;99.90;;;;;;5093928;28;19947;-59
2023/06/22 05:35:58;;;;;;;;;;;16.10;99.90;;;;;;5099146;28;19943;-59
2023/06/22 05:38:24;;;;;;;;;;;16.20;99.90;;;;;;5098903;28;20006;-59
2023/06/22 05:40:49;;;;;;;;;;;16.20;99.90;;;;;;5098700;28;20018;-58
2023/06/22 05:43:15;;;;;;;;;;;16.20;99.90;;;;;;5098703;28;19912;-59
2023/06/22 05:45:41;;;;;;;;;;;16.20;99.90;;;;;;5098643;28;19919;-59
2023/06/22 05:48:06;;;;;;;;;;;16.20;99.90;;;;;;5094646;28;19908;-59
2023/06/22 05:50:32;;;;;;;;;;;16.30;99.90;;;;;;5095141;28;19912;-59
2023/06/22 05:52:58;;;;;;;;;;;16.30;99.90;;;;;;5098842;28;19908;-58
2023/06/22 05:55:23;;;;;;;;;;;16.30;99.90;;;;;;5098789;28;20302;-58
2023/06/22 05:57:49;;;;;;;;;;;16.40;99.90;;;;;;5098566;28;19944;-59
2023/06/22 06:00:15;;;;;;;;;;;16.40;99.90;;;;;;5085114;28;19976;-59
2023/06/22 06:02:43;;;;;;;;;;;16.40;99.90;;;;;;5097225;28;19908;-59
2023/06/22 06:05:10;;;;;;;;;;;16.50;99.90;;;;;;5092722;28;19916;-59
2023/06/22 06:07:37;;;;;;;;;;;16.60;99.90;;;;;;5097118;28;19920;-58
2023/06/22 06:10:04;;;;;;;;;;;16.70;99.90;;;;;;5089618;28;19912;-59
2023/06/22 06:12:30;;;;;;;;;;;16.70;99.90;;;;;;5093983;28;19908;-59
2023/06/22 06:14:56;;;;;;;;;;;16.80;99.90;;;;;;5095913;28;19908;-59
2023/06/22 06:17:22;;;;;;;;;;;16.80;99.90;;;;;;5077787;28;20351;-59
2023/06/22 06:19:47;;;;;;;;;;;16.90;99.90;;;;;;5078011;28;19974;-59
2023/06/22 06:22:13;;;;;;;;;;;17.00;99.90;;;;;;5077641;28;20326;-59
2023/06/22 06:24:39;;;;;;;;;;;16.40;99.90;;;;;;5094219;28;20274;-59
2023/06/22 06:27:05;;;;;;;;;;;17.00;99.90;;;;;;5098089;28;19931;-59
2023/06/22 06:29:31;;;;;;;;;;;17.00;99.90;;;;;;5087275;28;19958;-59
2023/06/22 06:31:56;;;;;;;;;;;17.10;99.90;;;;;;5096886;28;20439;-59
2023/06/22 06:34:22;;;;;;;;;;;17.10;99.90;;;;;;5091631;28;19908;-58
2023/06/22 06:36:48;;;;;;;;;;;17.10;99.90;;;;;;5077535;28;19909;-59
2023/06/22 06:39:14;;;;;;;;;;;17.20;99.90;;;;;;5085887;28;19916;-59
2023/06/22 06:41:39;;;;;;;;;;;17.30;99.90;;;;;;5078333;28;19921;-59
2023/06/22 06:44:05;;;;;;;;;;;17.30;99.90;;;;;;5090207;28;20019;-59
2023/06/22 06:46:31;;;;;;;;;;;17.40;99.90;;;;;;5089075;28;19928;-59
2023/06/22 06:48:56;;;;;;;;;;;17.40;99.90;;;;;;5079580;28;19912;-59
2023/06/22 06:51:22;;;;;;;;;;;17.50;99.90;;;;;;5077803;28;19909;-59
2023/06/22 06:53:47;;;;;;;;;;;17.50;99.90;;;;;;5077625;28;19909;-59
2023/06/22 06:56:13;;;;;;;;;;;17.60;99.90;;;;;;5087265;28;20263;-59
2023/06/22 06:58:42;;;;;;;;;;;17.70;99.90;;;;;;5097965;28;20480;-59
2023/06/22 07:01:08;;;;;;;;;;;17.70;99.90;;;;;;5097088;28;19934;-59
2023/06/22 07:03:33;;;;;;;;;;;17.70;99.90;;;;;;5089411;28;19912;-59
2023/06/22 07:05:59;;;;;;;;;;;17.80;99.90;;;;;;5094564;28;20010;-59
2023/06/22 07:08:25;;;;;;;;;;;17.90;99.90;;;;;;5097466;28;19908;-59
2023/06/22 07:10:52;;;;;;;;;;;18.00;99.90;;;;;;5077453;28;19908;-59
2023/06/22 07:13:17;;;;;;;;;;;18.00;99.90;;;;;;5077112;28;19931;-58
2023/06/22 07:15:43;;;;;;;;;;;18.00;99.90;;;;;;5085448;28;20285;-59
2023/06/22 07:18:09;;;;;;;;;;;18.10;99.90;;;;;;5099948;28;19908;-59
2023/06/22 07:20:35;;;;;;;;;;;18.20;99.90;;;;;;5100124;28;20366;-59
2023/06/22 07:23:03;;;;;;;;;;;18.20;99.90;;;;;;5094150;28;20011;-59
2023/06/22 07:25:29;;;;;;;;;;;18.30;99.90;;;;;;5086924;28;20291;-59
2023/06/22 07:28:01;;;;;;;;;;;18.40;99.90;;;;;;5092027;28;19933;-59
2023/06/22 07:30:27;;;;;;;;;;;18.50;99.90;;;;;;5080744;28;19908;-59
2023/06/22 07:32:53;;;;;;;;;;;18.60;99.90;;;;;;5080876;28;20396;-59
2023/06/22 07:35:18;;;;;;;;;;;18.60;99.90;;;;;;5090491;28;20002;-59
2023/06/22 07:37:44;;;;;;;;;;;18.70;99.90;;;;;;5083025;28;19916;-60
2023/06/22 07:40:10;;;;;;;;;;;18.80;99.90;;;;;;5085254;28;19921;-59
2023/06/22 07:42:36;;;;;;;;;;;18.80;99.90;;;;;;5086095;28;20282;-59
2023/06/22 07:45:03;;;;;;;;;;;18.90;99.90;;;;;;5086615;28;19980;-59
2023/06/22 07:47:28;;;;;;;;;;;19.00;99.90;;;;;;5101462;28;19908;-59
2023/06/22 07:49:57;;;;;;;;;;;19.10;99.90;;;;;;5091647;28;19916;-59
2023/06/22 07:52:22;;;;;;;;;;;19.20;99.90;;;;;;5084125;28;19913;-59
2023/06/22 07:54:48;;;;;;;;;;;19.20;99.90;;;;;;5094732;28;19955;-59
2023/06/22 07:57:14;;;;;;;;;;;19.30;99.90;;;;;;5088022;28;19963;-59
2023/06/22 07:59:39;;;;;;;;;;;19.40;99.90;;;;;;5100787;28;19908;-59
2023/06/22 08:02:05;;;;;;;;;;;19.50;99.90;;;;;;5100506;28;19912;-59
2023/06/22 08:04:33;;;;;;;;;;;19.50;99.90;;;;;;5101033;28;19916;-59
2023/06/22 08:06:59;;;;;;;;;;;19.60;99.90;;;;;;5100641;28;19914;-59
2023/06/22 08:09:25;;;;;;;;;;;19.50;99.90;;;;;;5084601;28;19912;-59
2023/06/22 08:11:50;;;;;;;;;;;19.60;99.90;;;;;;5088064;28;19912;-59
2023/06/22 08:14:16;;;;;;;;;;;19.70;99.90;;;;;;5092613;28;19923;-59
2023/06/22 08:16:42;;;;;;;;;;;19.80;99.90;;;;;;5086081;28;19915;-59
2023/06/22 08:19:08;;;;;;;;;;;19.90;99.90;;;;;;5084775;28;19912;-59
2023/06/22 08:21:33;;;;;;;;;;;20.00;99.90;;;;;;5080910;28;20330;-59
2023/06/22 08:23:59;;;;;;;;;;;20.00;99.90;;;;;;5080173;28;20378;-59
2023/06/22 08:26:25;;;;;;;;;;;20.00;99.90;;;;;;5079864;28;20327;-59
2023/06/22 08:28:50;;;;;;;;;;;20.10;99.90;;;;;;5080762;28;19976;-59
2023/06/22 08:31:16;;;;;;;;;;;20.10;99.90;;;;;;5090988;28;20727;-59
2023/06/22 08:33:43;;;;;;;;;;;20.20;99.90;;;;;;5091235;28;19943;-59
2023/06/22 08:36:10;;;;;;;;;;;20.30;99.90;;;;;;5089934;28;20287;-59
2023/06/22 08:38:36;;;;;;;;;;;20.40;99.90;;;;;;5094638;28;19935;-59
2023/06/22 08:41:02;;;;;;;;;;;20.50;99.90;;;;;;5084361;28;19921;-59
2023/06/22 08:43:28;;;;;;;;;;;20.50;99.90;;;;;;5079278;28;19927;-59
2023/06/22 08:45:53;;;;;;;;;;;20.50;99.90;;;;;;5079433;28;20006;-59
2023/06/22 08:48:19;;;;;;;;;;;20.60;99.90;;;;;;5085648;28;19912;-59
2023/06/22 08:50:45;;;;;;;;;;;20.80;99.90;;;;;;5100037;28;19956;-59
2023/06/22 08:53:10;;;;;;;;;;;20.90;99.90;;;;;;5099889;28;20355;-59
2023/06/22 08:55:36;;;;;;;;;;;21.00;99.90;;;;;;5099831;28;19908;-59
2023/06/22 08:58:03;;;;;;;;;;;21.00;99.90;;;;;;5099780;28;19912;-59
2023/06/22 09:00:32;;;;;;;;;;;21.10;99.90;;;;;;5097607;28;19919;-59
2023/06/22 09:02:58;;;;;;;;;;;21.10;99.90;;;;;;5099485;28;19909;-59
2023/06/22 09:05:25;;;;;;;;;;;21.30;99.90;;;;;;5099439;28;19912;-59
2023/06/22 09:07:51;;;;;;;;;;;21.40;99.90;;;;;;5097589;28;19916;-59
2023/06/22 09:10:17;;;;;;;;;;;21.50;99.90;;;;;;5099786;28;19954;-59
2023/06/22 09:12:43;;;;;;;;;;;21.60;99.90;;;;;;5089278;28;19920;-59
2023/06/22 09:15:09;;;;;;;;;;;21.50;99.90;;;;;;5079213;28;19995;-59
2023/06/22 09:17:35;;;;;;;;;;;21.50;99.90;;;;;;5078876;28;19909;-59
2023/06/22 09:20:01;;;;;;;;;;;21.60;99.90;;;;;;5078812;28;19915;-59
2023/06/22 09:22:29;;;;;;;;;;;21.70;99.90;;;;;;5079321;28;20007;-59
2023/06/22 09:24:59;;;;;;;;;;;21.90;99.90;;;;;;5078711;28;19913;-59
2023/06/22 09:27:25;;;;;;;;;;;21.90;99.90;;;;;;5078824;28;19954;-59
2023/06/22 09:29:50;;;;;;;;;;;22.00;99.90;;;;;;5088475;28;19912;-59
2023/06/22 09:32:16;;;;;;;;;;;22.10;99.90;;;;;;5099479;28;19954;-59
2023/06/22 09:34:43;;;;;;;;;;;22.30;99.90;;;;;;5098873;28;19934;-59
2023/06/22 09:37:08;;;;;;;;;;;22.30;99.90;;;;;;5098672;28;20371;-59
2023/06/22 09:39:34;;;;;;;;;;;22.40;99.90;;;;;;5098577;28;19908;-60
2023/06/22 09:42:00;;;;;;;;;;;22.60;99.90;;;;;;5098597;28;19912;-59
2023/06/22 09:44:25;;;;;;;;;;;22.70;99.90;;;;;;5098889;28;19927;-59
2023/06/22 09:46:51;;;;;;;;;;;22.80;99.90;;;;;;5098703;28;19928;-59
2023/06/22 09:49:17;;;;;;;;;;;23.10;99.90;;;;;;5096727;28;19912;-59
2023/06/22 09:51:42;;;;;;;;;;;23.10;99.30;;;;;;5098993;28;19908;-59
2023/06/22 09:54:08;;;;;;;;;;;23.20;99.90;;;;;;5099091;28;19909;-60
2023/06/22 09:56:34;;;;;;;;;;;23.40;99.90;;;;;;5098758;28;19978;-59
2023/06/22 09:58:59;;;;;;;;;;;23.70;99.90;;;;;;5098513;28;20416;-59
2023/06/22 10:01:25;;;;;;;;;;;23.90;99.90;;;;;;5098420;28;19914;-59
2023/06/22 10:03:54;;;;;;;;;;;24.10;99.90;;;;;;5098660;28;19912;-60
2023/06/22 10:06:20;;;;;;;;;;;24.30;99.90;;;;;;5096044;28;19916;-60
2023/06/22 10:08:45;;;;;;;;;;;24.50;99.90;;;;;;5098479;28;19987;-60
2023/06/22 10:11:11;;;;;;;;;;;24.70;92.40;;;;;;5098223;28;19915;-60
2023/06/22 10:13:36;;;;;;;;;;;24.80;99.90;;;;;;5098094;28;19919;-59
2023/06/22 10:16:02;;;;;;;;;;;25.20;93.30;;;;;;5084256;28;19909;-59
2023/06/22 10:18:28;;;;;;;;;;;25.50;90.30;;;;;;5078452;28;20330;-60
2023/06/22 10:20:54;;;;;;;;;;;25.90;90.50;;;;;;5077580;28;20244;-60
2023/06/22 10:23:20;;;;;;;;;;;25.60;90.90;;;;;;5095303;28;20042;-60
2023/06/22 10:25:45;;;;;;;;;;;26.00;81.80;;;;;;5098244;28;19919;-60
2023/06/22 10:28:12;;;;;;;;;;;26.50;96.40;;;;;;5098068;28;19908;-60
2023/06/22 10:30:38;;;;;;;;;;;27.80;94.70;;;;;;5098011;28;20428;-60
2023/06/22 10:33:04;;;;;;;;;;;28.90;90.40;;;;;;5098218;28;19908;-60
2023/06/22 10:35:29;;;;;;;;;;;29.40;90.00;;;;;;5084377;28;20393;-60
2023/06/22 10:37:56;;;;;;;;;;;29.90;74.10;;;;;;5096410;28;20333;-60
2023/06/22 10:40:21;;;;;;;;;;;30.40;76.60;;;;;;5097771;28;19924;-60
2023/06/22 10:42:47;;;;;;;;;;;30.00;71.10;;;;;;5097870;28;19915;-60
2023/06/22 10:45:13;;;;;;;;;;;30.60;73.40;;;;;;5098090;28;19974;-60
2023/06/22 10:47:39;;;;;;;;;;;31.20;66.00;;;;;;5098081;28;19916;-60
2023/06/22 10:50:05;;;;;;;;;;;30.80;61.60;;;;;;5098034;28;19908;-60
2023/06/22 10:52:30;;;;;;;;;;;29.40;65.70;;;;;;5098944;28;19936;-59
2023/06/22 10:54:56;;;;;;;;;;;29.40;66.70;;;;;;5093982;28;20326;-60
2023/06/22 10:57:22;;;;;;;;;;;29.90;65.00;;;;;;5081606;28;19919;-60
2023/06/22 10:59:48;;;;;;;;;;;29.80;66.30;;;;;;5093969;28;19958;-59
2023/06/22 11:02:13;;;;;;;;;;;29.50;68.10;;;;;;5101952;28;19908;-60
2023/06/22 11:04:39;;;;;;;;;;;30.20;67.70;;;;;;5101413;28;19912;-59
2023/06/22 11:07:05;;;;;;;;;;;29.50;68.10;;;;;;5101951;28;19915;-59
2023/06/22 11:09:31;;;;;;;;;;;28.90;67.30;;;;;;5101883;28;20386;-59
2023/06/22 11:11:58;;;;;;;;;;;28.60;70.80;;;;;;5101603;28;20386;-59
2023/06/22 11:14:24;;;;;;;;;;;28.80;66.90;;;;;;5090063;28;19912;-59
2023/06/22 11:16:50;;;;;;;;;;;29.10;71.10;;;;;;5081251;28;19916;-59
2023/06/22 11:19:16;;;;;;;;;;;28.50;63.10;;;;;;5081477;28;19908;-59
2023/06/22 11:21:41;;;;;;;;;;;27.30;67.20;;;;;;5081168;28;19915;-59
2023/06/22 11:24:07;;;;;;;;;;;26.60;70.70;;;;;;5081105;28;19916;-60
2023/06/22 11:26:33;;;;;;;;;;;26.90;74.20;;;;;;5081248;28;19909;-59
2023/06/22 11:28:59;;;;;;;;;;;27.70;75.50;;;;;;5080640;28;19909;-59
2023/06/22 11:31:24;;;;;;;;;;;28.30;68.60;;;;;;5092989;28;20034;-59
2023/06/22 11:33:50;;;;;;;;;;;28.70;67.00;;;;;;5088413;28;20454;-59
2023/06/22 11:36:16;;;;;;;;;;;29.40;65.10;;;;;;5089485;28;19940;-59
2023/06/22 11:38:42;;;;;;;;;;;29.10;63.40;;;;;;5081076;28;20344;-59
2023/06/22 11:41:09;;;;;;;;;;;28.00;66.90;;;;;;5096577;28;19965;-59
2023/06/22 11:43:35;;;;;;;;;;;28.30;67.50;;;;;;5101081;28;19911;-59
2023/06/22 11:46:02;;;;;;;;;;;28.40;65.90;;;;;;5098861;28;20349;-59
2023/06/22 11:48:28;;;;;;;;;;;28.50;65.90;;;;;;5089406;28;20262;-59
2023/06/22 11:50:54;;;;;;;;;;;28.90;63.70;;;;;;5101192;28;19935;-59
2023/06/22 11:53:21;;;;;;;;;;;28.70;65.90;;;;;;5085639;28;19914;-59
2023/06/22 11:55:47;;;;;;;;;;;29.10;67.00;;;;;;5080849;28;19908;-59
2023/06/22 11:58:13;;;;;;;;;;;29.80;64.60;;;;;;5080408;28;19958;-59
2023/06/22 12:00:38;;;;;;;;;;;30.10;62.90;;;;;;5079216;28;20015;-59
2023/06/22 12:03:04;;;;;;;;;;;30.50;63.20;;;;;;5079908;28;19916;-59
2023/06/22 12:05:30;;;;;;;;;;;30.40;62.30;;;;;;5089870;28;20042;-59
2023/06/22 12:07:56;;;;;;;;;;;30.00;63.70;;;;;;5092681;28;19908;-59
2023/06/22 12:10:22;;;;;;;;;;;29.40;64.20;;;;;;5101081;28;19920;-59
2023/06/22 12:12:48;;;;;;;;;;;29.80;66.40;;;;;;5081288;28;19908;-60
2023/06/22 12:15:14;;;;;;;;;;;30.90;62.80;;;;;;5080570;28;19916;-59
2023/06/22 12:17:40;;;;;;;;;;;30.10;62.20;;;;;;5091968;28;20366;-59
2023/06/22 12:20:06;;;;;;;;;;;29.70;62.80;;;;;;5088088;28;20416;-59
2023/06/22 12:22:32;;;;;;;;;;;29.00;62.80;;;;;;5084116;28;19912;-59
2023/06/22 12:24:58;;;;;;;;;;;28.20;64.00;;;;;;5082316;28;19935;-59
2023/06/22 12:27:25;;;;;;;;;;;27.20;68.10;;;;;;5100245;28;19908;-59
2023/06/22 12:29:51;;;;;;;;;;;26.60;71.20;;;;;;5100489;28;19915;-59
2023/06/22 12:32:16;;;;;;;;;;;26.00;76.40;;;;;;5100417;28;19908;-59
2023/06/22 12:34:42;;;;;;;;;;;25.90;81.90;;;;;;5100354;28;19995;-59
2023/06/22 12:37:08;;;;;;;;;;;26.50;77.10;;;;;;5097176;28;20263;-58
2023/06/22 12:39:34;;;;;;;;;;;27.10;75.10;;;;;;5090819;28;19931;-59
2023/06/22 12:41:59;;;;;;;;;;;27.70;72.10;;;;;;5079557;28;19920;-59
2023/06/22 12:44:25;;;;;;;;;;;28.00;71.70;;;;;;5088772;28;19916;-59
2023/06/22 12:46:50;;;;;;;;;;;28.90;68.00;;;;;;5090875;28;19909;-59
2023/06/22 12:49:16;;;;;;;;;;;28.90;66.20;;;;;;5078282;28;19909;-59
2023/06/22 12:51:42;;;;;;;;;;;29.50;65.90;;;;;;5089410;28;20385;-59
2023/06/22 12:54:08;;;;;;;;;;;29.50;62.50;;;;;;5079980;28;19908;-59
2023/06/22 12:56:34;;;;;;;;;;;29.40;65.90;;;;;;5085280;28;20302;-59
2023/06/22 12:59:02;;;;;;;;;;;29.80;64.20;;;;;;5099874;28;19943;-59
2023/06/22 13:01:28;;;;;;;;;;;29.60;64.30;;;;;;5099672;28;19916;-59
2023/06/22 13:03:54;;;;;;;;;;;29.90;63.30;;;;;;5099971;28;19908;-59
2023/06/22 13:06:20;;;;;;;;;;;29.60;64.20;;;;;;5099390;28;20011;-59
2023/06/22 13:08:45;;;;;;;;;;;29.40;65.30;;;;;;5093451;28;19915;-59
2023/06/22 13:11:11;;;;;;;;;;;29.90;62.30;;;;;;5079349;28;19909;-59
2023/06/22 13:13:36;;;;;;;;;;;29.50;62.70;;;;;;5079075;28;20424;-59
2023/06/22 13:16:02;;;;;;;;;;;28.80;63.10;;;;;;5078494;28;19908;-59
2023/06/22 13:18:28;;;;;;;;;;;28.50;66.70;;;;;;5078936;28;19950;-59
2023/06/22 13:20:54;;;;;;;;;;;28.50;67.00;;;;;;5079281;28;19909;-59
2023/06/22 13:23:23;;;;;;;;;;;28.70;66.00;;;;;;5078856;28;19931;-59
2023/06/22 13:25:48;;;;;;;;;;;29.20;63.30;;;;;;5079041;28;19913;-59
2023/06/22 13:28:15;;;;;;;;;;;29.60;64.20;;;;;;5093791;28;19908;-59
2023/06/22 13:30:41;;;;;;;;;;;30.00;63.70;;;;;;5093675;28;20327;-59
2023/06/22 13:33:08;;;;;;;;;;;29.80;62.70;;;;;;5091084;28;19965;-59
2023/06/22 13:35:35;;;;;;;;;;;30.00;62.80;;;;;;5100513;28;19955;-59
2023/06/22 13:38:00;;;;;;;;;;;30.40;63.40;;;;;;5081555;28;19958;-59
2023/06/22 13:40:26;;;;;;;;;;;30.00;61.10;;;;;;5083581;28;19920;-59
2023/06/22 13:42:52;;;;;;;;;;;29.50;62.00;;;;;;5088839;28;20267;-59
2023/06/22 13:45:19;;;;;;;;;;;29.60;64.60;;;;;;5087071;28;19918;-59
2023/06/22 13:47:46;;;;;;;;;;;30.00;62.70;;;;;;5097599;28;20488;-59
2023/06/22 13:50:15;;;;;;;;;;;29.30;63.20;;;;;;5081145;28;19912;-59
2023/06/22 13:52:41;;;;;;;;;;;29.40;63.30;;;;;;5077532;28;20431;-59
2023/06/22 13:55:07;;;;;;;;;;;29.70;62.20;;;;;;5078384;28;19956;-59
2023/06/22 13:57:37;;;;;;;;;;;29.80;62.30;;;;;;5093674;28;19912;-59
2023/06/22 14:00:05;;;;;;;;;;;29.00;65.10;;;;;;5098509;28;19961;-59
2023/06/22 14:02:30;;;;;;;;;;;29.10;64.50;;;;;;5091535;28;19935;-58
2023/06/22 14:04:56;;;;;;;;;;;28.40;66.00;;;;;;5100925;27;19913;-59
2023/06/22 14:07:23;;;;;;;;;;;28.20;67.30;;;;;;5078626;28;20287;-59
2023/06/22 14:09:50;;;;;;;;;;;28.60;66.70;;;;;;5078021;28;19908;-59
2023/06/22 14:12:17;;;;;;;;;;;28.60;66.60;;;;;;5078003;28;19930;-59